»·PEaware :: N46PM KVUO-KCOE

N46PM :: KVUO-KCOE

FLIGHT INFORMATION

Flight Status: Arrived
Operator: Privately registered:
United States
More flights under this callsign
Pilot: Gabor H. (24209)
Aircraft: PIPER PA-46-500TP MALIBU MERIDIAN
(P46T)
More flights by this aircraft type
Origin: KVUO Pearson
United States
Destination: KCOE Coeur d'Alene
United States
More flights between these airports :: More routes between these airports
Route: BTG V182 LTJ GEG
File this flight plan on PilotEdge
Remarks:
Altitude:
(Current/Filed)
23,000ft
Speed:
(Current/Filed)
250kts
Departed: 25-Nov-20 11:22 AM
Arrived: 25-Nov-20 12:41 PM
Distance/Time
Traveled:
273nm/1:19
Distance/Time
To Go:
Arrived

Flight Plot

Page will automatically refresh every two minutes.

Flight plan parsing failed; only flown route is shown


Map Options




Map Legend


Flown Route
Filed Route
Departure Airport
Arrival Airport
Navaid (VOR, NDB)
Fix

Horizontal Profiles

Position Reports

Time Latitude Longitude Heading Altitude Ground
Speed
25-Nov-20 11:06 45.622608 -122.654427 152 30ft 0kts
25-Nov-20 11:07 45.622608 -122.654427 152 30ft 0kts
25-Nov-20 11:08 45.622608 -122.654427 152 30ft 0kts
25-Nov-20 11:09 45.622608 -122.654427 152 30ft 0kts
25-Nov-20 11:09 45.622608 -122.654427 152 30ft 0kts
25-Nov-20 11:11 45.622608 -122.654427 152 30ft 0kts
25-Nov-20 11:12 45.622608 -122.654427 152 30ft 0kts
25-Nov-20 11:13 45.622608 -122.654427 152 30ft 0kts
25-Nov-20 11:14 45.622608 -122.654427 152 30ft 0kts
25-Nov-20 11:14 45.622608 -122.654427 152 30ft 0kts
25-Nov-20 11:16 45.621467 -122.653381 177 26ft 7kts
25-Nov-20 11:16 45.621039 -122.651592 163 26ft 10kts
25-Nov-20 11:17 45.620406 -122.650513 187 25ft 0kts
25-Nov-20 11:18 45.620406 -122.650513 187 25ft 0kts
25-Nov-20 11:19 45.620406 -122.650513 187 25ft 0kts
25-Nov-20 11:20 45.620317 -122.650424 123 25ft 2kts
25-Nov-20 11:21 45.619966 -122.652026 276 25ft 47kts
25-Nov-20 11:22 45.624688 -122.693593 294 923ft 123kts
25-Nov-20 11:23 45.652694 -122.686123 34 2414ft 128kts
25-Nov-20 11:24 45.681624 -122.656929 30 3957ft 129kts
25-Nov-20 11:25 45.711398 -122.627521 28 5392ft 133kts
25-Nov-20 11:26 45.742051 -122.597257 30 6903ft 131kts
25-Nov-20 11:27 45.747047 -122.540682 89 8378ft 155kts
25-Nov-20 11:28 45.745947 -122.477164 88 9839ft 163kts
25-Nov-20 11:29 45.744752 -122.410876 86 11262ft 171kts
25-Nov-20 11:30 45.743528 -122.342521 86 12586ft 173kts
25-Nov-20 11:31 45.742246 -122.273422 86 14001ft 174kts
25-Nov-20 11:32 45.740906 -122.204113 86 15390ft 175kts
25-Nov-20 11:33 45.739507 -122.134257 86 16722ft 176kts
25-Nov-20 11:34 45.738064 -122.063939 86 17984ft 178kts
25-Nov-20 11:35 45.736548 -121.992411 86 19241ft 182kts
25-Nov-20 11:36 45.734948 -121.919045 87 20401ft 187kts
25-Nov-20 11:37 45.733227 -121.843604 87 21538ft 192kts
25-Nov-20 11:38 45.731418 -121.766523 87 22655ft 196kts
25-Nov-20 11:39 45.729467 -121.684325 88 23191ft 230kts
25-Nov-20 11:40 45.726932 -121.585224 89 23165ft 261kts
25-Nov-20 11:41 45.724176 -121.479329 89 23168ft 270kts
25-Nov-20 11:42 45.721274 -121.370593 89 23165ft 275kts
25-Nov-20 11:43 45.718244 -121.261219 91 23162ft 275kts
25-Nov-20 11:44 45.715087 -121.151401 91 23170ft 277kts
25-Nov-20 11:45 45.740213 -121.054440 46 23151ft 269kts
25-Nov-20 11:46 45.787312 -120.970531 46 23164ft 270kts
25-Nov-20 11:47 45.834570 -120.886650 46 23165ft 272kts
25-Nov-20 11:48 45.882139 -120.801958 46 23165ft 272kts
25-Nov-20 11:49 45.929717 -120.717003 46 23161ft 273kts
25-Nov-20 11:50 45.977553 -120.631319 47 23078ft 276kts
25-Nov-20 11:51 46.025455 -120.545233 46 23022ft 276kts
25-Nov-20 11:52 46.073325 -120.458978 47 23002ft 275kts
25-Nov-20 11:53 46.121522 -120.371871 47 23000ft 281kts
25-Nov-20 11:54 46.170407 -120.283152 48 23000ft 283kts
25-Nov-20 11:55 46.219285 -120.193986 49 22974ft 285kts
25-Nov-20 11:56 46.267749 -120.104031 48 22974ft 284kts
25-Nov-20 11:57 46.316651 -120.014508 48 22986ft 285kts
25-Nov-20 11:58 46.365113 -119.925585 48 23033ft 279kts
25-Nov-20 11:59 46.413144 -119.837120 48 23077ft 277kts
25-Nov-20 12:00 46.460551 -119.749584 48 23127ft 276kts
25-Nov-20 12:01 46.507981 -119.661679 47 23129ft 277kts
25-Nov-20 12:02 46.555549 -119.573260 47 23130ft 277kts
25-Nov-20 12:03 46.603531 -119.483875 48 23128ft 285kts
25-Nov-20 12:04 46.652303 -119.392570 48 23126ft 286kts
25-Nov-20 12:05 46.700848 -119.301331 48 23121ft 284kts
25-Nov-20 12:06 46.749167 -119.210348 48 23119ft 285kts
25-Nov-20 12:07 46.797742 -119.118646 48 23144ft 283kts
25-Nov-20 12:08 46.845611 -119.027849 48 23077ft 279kts
25-Nov-20 12:09 46.892852 -118.938006 48 23064ft 278kts
25-Nov-20 12:10 46.939775 -118.848485 48 23065ft 277kts
25-Nov-20 12:11 46.986569 -118.758875 48 23065ft 277kts
25-Nov-20 12:12 47.033690 -118.668421 48 22812ft 287kts
25-Nov-20 12:13 47.081253 -118.576664 48 21349ft 277kts
25-Nov-20 12:14 47.126834 -118.488515 48 19916ft 267kts
25-Nov-20 12:15 47.170995 -118.402888 48 18518ft 258kts
25-Nov-20 12:16 47.213546 -118.320084 49 17157ft 248kts
25-Nov-20 12:17 47.254100 -118.240921 48 15870ft 239kts
25-Nov-20 12:18 47.292855 -118.165123 47 15028ft 215kts
25-Nov-20 12:19 47.327872 -118.096636 48 15043ft 220kts
25-Nov-20 12:20 47.366103 -118.021412 48 15035ft 236kts
25-Nov-20 12:21 47.406080 -117.942465 48 14203ft 241kts
25-Nov-20 12:22 47.445414 -117.864633 48 12698ft 232kts
25-Nov-20 12:23 47.482888 -117.790382 48 10932ft 220kts
25-Nov-20 12:24 47.518926 -117.718751 50 9209ft 213kts
25-Nov-20 12:25 47.552625 -117.651548 50 9002ft 204kts
25-Nov-20 12:26 47.581523 -117.577905 58 9002ft 209kts
25-Nov-20 12:27 47.610407 -117.500770 58 8975ft 216kts
25-Nov-20 12:28 47.639866 -117.421658 59 7986ft 213kts
25-Nov-20 12:29 47.667768 -117.346493 60 6876ft 202kts
25-Nov-20 12:30 47.694045 -117.275062 66 5823ft 193kts
25-Nov-20 12:31 47.694636 -117.198117 91 5011ft 185kts
25-Nov-20 12:32 47.699845 -117.126632 66 4496ft 169kts
25-Nov-20 12:33 47.716613 -117.061584 69 4501ft 170kts
25-Nov-20 12:34 47.734249 -116.990312 69 4408ft 196kts
25-Nov-20 12:35 47.753891 -116.910497 69 3342ft 209kts
25-Nov-20 12:36 47.759895 -116.845111 82 3308ft 141kts
25-Nov-20 12:37 47.771216 -116.789864 59 3599ft 145kts
25-Nov-20 12:38 47.801065 -116.765188 340 3699ft 113kts
25-Nov-20 12:39 47.793265 -116.795609 213 2831ft 111kts
25-Nov-20 12:40 47.775275 -116.812253 131 2310ft 15kts
25-Nov-20 12:41 47.774164 -116.812597 212 2310ft 13kts
25-Nov-20 12:42 47.773259 -116.812743 30 2310ft 0kts
25-Nov-20 12:43 47.773259 -116.812743 30 2310ft 0kts

Navigation Log

Ident Type
Flight plan parsing failed, navigation log unavailable